Latest Weather Observations for Cape Byron

IDN60801

Issued at 11:33 am EDT Friday 19 December 2014 (issued every 30 minutes, with the page automatically refreshed every 10 minutes)

About weather observations | Map of weather stations | Latest weather observations for NSW | Other Formats
Station Details ID: 058216 Name: CAPE BYRON AWS Lat: -28.64 Lon: 153.64 Height: 95.0 m
Data from the previous 72 hours. | See also: Recent months at Cape Byron
Date/Time
EDT
Temp
°C
App
Temp
°C
Dew
Point
Rel
Hum
%
Delta-T
°C
Wind Press
QNH
hPa
Press
MSL
hPa
Rain
since 9 am
mm
Dir
 
Spd
km/h
Gust
km/h
Spd
kts
Gust
kts
19/11:30am 26.7 27.9 19.1 63 4.9 N 11 15 6 8 1011.1 1010.7 0.0
19/11:00am 25.9 27.1 19.1 66 4.4 N 11 17 6 9 1011.0 1010.5 0.0
19/10:30am 25.0 26.7 19.4 71 3.6 NNE 9 17 5 9 1011.1 1010.7 0.0
19/10:00am 24.0 25.7 19.3 75 3.0 N 9 15 5 8 1011.2 1010.8 0.0
19/09:30am 23.3 24.8 18.8 76 2.9 N 9 15 5 8 1011.4 1011.0 0.0
19/09:00am 22.8 24.4 19.2 80 2.3 N 9 15 5 8 1011.4 1011.0 13.4
19/08:30am 22.4 24.2 19.6 84 1.8 NNE 9 13 5 7 1011.4 1011.0 13.4
19/08:00am 21.9 22.8 19.3 85 1.7 N 13 17 7 9 1011.3 1010.9 13.4
19/07:30am 21.3 21.3 18.9 86 1.5 N 17 22 9 12 1011.1 1010.7 13.4
19/07:00am 20.6 20.4 18.4 87 1.4 N 17 20 9 11 1011.0 1010.5 13.4
19/06:30am 20.5 20.3 18.6 89 1.2 N 17 20 9 11 1011.1 1010.7 13.4
19/06:00am 20.3 21.1 18.2 88 1.3 N 11 17 6 9 1011.0 1010.5 13.4
19/05:30am 20.7 22.0 18.5 87 1.4 NW 9 15 5 8 1010.5 1010.0 13.4
19/05:00am 20.9 19.4 18.5 86 1.5 N 24 32 13 17 1009.8 1009.3 13.4
19/04:30am 20.4 20.1 18.3 88 1.3 N 17 24 9 13 1010.1 1009.6 13.4
19/04:00am 20.3 21.5 18.2 88 1.3 NNE 9 13 5 7 1010.5 1010.0 13.0
19/03:30am 20.0 20.0 18.1 89 1.2 NW 15 22 8 12 1010.7 1010.2 12.8
19/03:00am 20.2 20.1 18.7 91 0.9 NW 17 26 9 14 1011.3 1010.9 12.6
19/02:30am 20.9 21.1 19.4 91 1.0 WNW 17 24 9 13 1011.8 1011.4 12.6
19/02:00am 19.9 19.7 17.7 87 1.4 WNW 15 17 8 9 1012.4 1012.0 12.4
19/01:30am 21.0 21.2 16.8 77 2.6 WSW 11 17 6 9 1012.4 1012.0 12.0
19/01:00am 23.5 25.9 21.6 89 1.3 N 11 15 6 8 1012.3 1011.9 11.0
19/12:30am 23.3 25.0 21.6 90 1.1 NE 15 17 8 9 1011.9 1011.5 10.8
19/12:00am 23.1 25.4 21.4 90 1.1 ESE 11 19 6 10 1011.5 1011.1 10.6
 
Date/Time
EDT
Temp
°C
App
Temp
°C
Dew
Point
Rel
Hum
%
Delta-T
°C
Wind Press
QNH
hPa
Press
MSL
hPa
Rain
since 9 am
mm
Dir
 
Spd
km/h
Gust
km/h
Spd
kts
Gust
kts
18/11:30pm 22.3 23.7 20.4 89 1.2 SW 13 20 7 11 1012.2 1011.8 10.2
18/11:00pm 23.4 24.5 21.3 88 1.4 NE 17 19 9 10 1011.2 1010.8 10.2
18/10:30pm 23.1 21.8 20.6 86 1.6 NE 28 39 15 21 1011.3 1010.9 10.2
18/10:00pm 23.1 24.2 20.4 85 1.8 E 15 22 8 12 1011.1 1010.7 10.2
18/09:30pm 23.5 23.1 19.0 76 2.9 NNE 19 32 10 17 1010.3 1009.8 10.0
18/09:00pm 22.9 22.5 20.2 85 1.8 NNE 22 33 12 18 1010.3 1009.8 9.8
18/08:30pm 23.2 24.4 20.7 86 1.6 NNE 15 20 8 11 1010.4 1009.9 9.6
18/08:00pm 21.6 22.9 20.2 92 0.9 NW 13 20 7 11 1010.0 1009.5 9.6
18/07:30pm 21.2 20.6 19.7 91 1.0 W 22 35 12 19 1010.0 1009.5 9.6
18/07:19pm 21.1 18.0 19.7 92 0.9 W 35 50 19 27 1009.7 1009.2 9.4
18/07:00pm 21.5 16.4 19.8 90 1.1 WNW 46 76 25 41 1009.4 1008.9 3.4
18/06:52pm 24.1 24.6 22.0 88 1.4 WSW 22 76 12 41 1009.6 1009.1 0.2
18/06:44pm 24.8 27.0 23.2 91 1.1 NW 17 32 9 17 1008.8 1008.3 0.0
18/06:30pm 24.7 24.7 23.1 91 1.1 NNW 28 41 15 22 1006.8 1006.3 0.0
18/06:00pm 24.7 24.5 22.8 89 1.3 N 28 41 15 22 1006.5 1006.0 0.0
18/05:30pm 25.2 24.2 22.7 86 1.7 N 32 44 17 24 1005.9 1005.4 0.0
18/05:00pm 25.3 24.3 22.6 85 1.8 N 32 43 17 23 1005.8 1005.3 0.0
18/04:30pm 25.6 25.2 23.1 86 1.7 NNE 30 44 16 24 1005.6 1005.1 0.0
18/04:00pm 25.8 25.8 23.1 85 1.8 NNE 28 39 15 21 1006.0 1005.5 0.0
18/03:30pm 26.9 26.7 23.4 81 2.4 NNE 30 43 16 23 1006.0 1005.5 0.0
18/03:00pm 27.4 26.9 22.8 76 3.1 NNE 30 44 16 24 1006.7 1006.2 0.0
18/02:30pm 27.3 28.0 22.9 77 3.0 NNE 24 35 13 19 1007.7 1007.2 0.0
18/02:00pm 26.5 27.0 22.6 79 2.6 NNE 24 35 13 19 1008.2 1007.7 0.0
18/01:30pm 27.5 28.0 22.7 75 3.3 NNE 24 39 13 21 1008.7 1008.2 0.0
18/01:00pm 26.7 27.1 22.5 78 2.8 NNE 24 35 13 19 1009.3 1008.8 0.0
18/12:30pm 26.8 28.2 22.8 79 2.7 NNE 20 28 11 15 1009.7 1009.2 0.0
18/12:00pm 26.1 27.5 22.6 81 2.4 NNE 19 26 10 14 1010.4 1009.9 0.0
18/11:30am 26.5 29.2 22.8 80 2.5 N 13 20 7 11 1011.1 1010.7 0.0
18/11:00am 26.1 28.1 22.2 79 2.6 NNE 15 19 8 10 1010.8 1010.3 0.0
18/10:30am 25.7 28.6 22.4 82 2.2 NNW 11 19 6 10 1011.1 1010.7 0.0
18/10:00am 27.0 31.3 23.7 82 2.3 N 7 11 4 6 1011.1 1010.7 0.0
18/09:30am 24.8 27.6 22.3 86 1.7 NNE 11 26 6 14 1011.1 1010.7 0.0
18/09:00am 24.4 27.1 22.1 87 1.5 NNW 11 20 6 11 1010.8 1010.3 0.4
18/08:30am 23.9 24.6 20.4 81 2.3 NNE 17 24 9 13 1010.9 1010.4 0.2
18/08:00am 24.2 26.4 20.5 80 2.4 NNW 9 13 5 7 1010.9 1010.4 0.2
18/07:30am 24.5 27.5 21.2 82 2.2 NE 7 11 4 6 1010.3 1009.8 0.2
18/07:00am 23.4 26.0 20.1 82 2.1 SW 6 7 3 4 1010.2 1009.7 0.2
18/06:30am 23.0 24.9 20.5 86 1.6 SW 11 13 6 7 1009.9 1009.4 0.2
18/06:00am 22.4 22.5 20.3 88 1.4 W 20 39 11 21 1009.8 1009.3 0.2
18/05:30am 22.7 24.9 20.4 87 1.5 NNW 9 13 5 7 1009.8 1009.3 0.2
18/05:00am 22.6 23.2 20.3 87 1.5 WSW 17 26 9 14 1011.0 1010.5 0.2
18/04:30am 23.0 23.3 20.7 87 1.5 WSW 20 24 11 13 1011.8 1011.4 0.2
18/04:00am 23.1 24.0 20.8 87 1.5 SSW 17 20 9 11 1011.3 1010.9 0.2
18/03:30am 23.1 21.5 20.8 87 1.5 E 30 35 16 19 1009.8 1009.3 0.2
18/03:00am 23.3 24.2 20.8 86 1.6 ESE 17 20 9 11 1010.4 1009.9 0.2
18/02:30am 23.0 23.8 20.7 87 1.5 SSW 17 20 9 11 1010.7 1010.2 0.2
18/02:00am 23.3 23.4 21.2 88 1.4 S 22 28 12 15 1010.3 1009.8 0.2
18/01:30am 23.3 23.8 21.2 88 1.4 S 20 32 11 17 1010.3 1009.8 0.2
18/01:00am 23.8 22.8 21.3 86 1.7 SE 28 39 15 21 1010.3 1009.8 0.2
18/12:30am 23.8 22.2 21.5 87 1.5 SE 32 43 17 23 1010.2 1009.7 0.2
18/12:00am 23.8 21.2 21.5 87 1.5 SE 37 46 20 25 1009.8 1009.3 0.2
 
Date/Time
EDT
Temp
°C
App
Temp
°C
Dew
Point
Rel
Hum
%
Delta-T
°C
Wind Press
QNH
hPa
Press
MSL
hPa
Rain
since 9 am
mm
Dir
 
Spd
km/h
Gust
km/h
Spd
kts
Gust
kts
17/11:30pm 24.0 22.7 22.1 89 1.3 SSE 32 43 17 23 1010.1 1009.6 0.2
17/11:00pm 24.1 21.9 22.9 93 0.8 S 39 48 21 26 1010.1 1009.6 0.2
17/10:57pm 23.9 22.0 22.7 93 0.8 S 37 48 20 26 1010.0 1009.5 0.2
17/10:30pm 23.7 24.0 22.3 92 0.9 SSW 24 33 13 18 1009.4 1008.9 0.2
17/10:00pm 23.7 25.7 22.3 92 0.9 SSW 15 22 8 12 1009.1 1008.6 0.2
17/09:30pm 24.5 28.5 23.1 92 1.0 N 7 11 4 6 1007.9 1007.4 0.2
17/09:00pm 24.6 27.4 23.0 91 1.1 NNW 13 20 7 11 1007.1 1006.6 0.2
17/08:30pm 24.6 26.6 23.0 91 1.1 NNW 17 26 9 14 1006.5 1006.0 0.2
17/08:00pm 24.9 24.9 23.1 90 1.2 N 28 39 15 21 1005.8 1005.3 0.2
17/07:30pm 25.3 24.6 23.2 88 1.4 N 32 43 17 23 1005.1 1004.7 0.2
17/07:00pm 25.8 25.2 22.7 83 2.1 N 30 39 16 21 1004.7 1004.3 0.2
17/06:30pm 26.8 25.7 21.8 74 3.4 N 30 39 16 21 1004.3 1003.9 0.2
17/06:00pm 27.2 26.0 21.5 71 3.8 NNE 30 41 16 22 1004.0 1003.6 0.2
17/05:30pm 27.8 27.2 21.3 67 4.3 N 26 39 14 21 1003.6 1003.2 0.2
17/05:00pm 27.7 27.3 21.7 70 4.0 N 26 43 14 23 1003.5 1003.1 0.2
17/04:30pm 27.8 28.1 22.3 72 3.7 NNE 24 37 13 20 1003.6 1003.2 0.2
17/04:00pm 28.0 27.0 22.0 70 4.1 NNE 30 41 16 22 1003.9 1003.5 0.2
17/03:30pm 27.8 26.6 21.6 69 4.2 NNE 30 43 16 23 1004.0 1003.6 0.2
17/03:00pm 28.4 27.8 21.9 68 4.4 NNE 28 39 15 21 1004.3 1003.9 0.2
17/02:30pm 28.6 28.8 22.1 68 4.4 NNE 24 35 13 19 1004.5 1004.1 0.2
17/02:00pm 29.4 29.8 23.1 69 4.3 NNE 26 35 14 19 1004.6 1004.2 0.2
17/01:30pm 28.8 29.8 22.8 70 4.1 NNE 22 33 12 18 1004.7 1004.3 0.2
17/01:00pm 28.5 29.0 22.7 71 4.0 NNE 24 33 13 18 1005.0 1004.6 0.2
17/12:30pm 27.8 28.2 22.5 73 3.6 NNE 24 35 13 19 1005.2 1004.8 0.2
17/12:00pm 27.7 28.8 22.4 73 3.6 NNE 20 35 11 19 1005.3 1004.9 0.2
17/11:30am 27.4 28.7 22.3 73 3.4 NNE 19 28 10 15 1005.7 1005.2 0.2
17/11:00am 26.9 27.2 22.3 76 3.1 N 24 33 13 18 1005.7 1005.2 0.2
17/10:30am 26.3 26.6 22.2 78 2.8 N 24 35 13 19 1005.7 1005.2 0.2
17/10:00am 25.9 26.2 22.2 80 2.5 N 24 33 13 18 1005.9 1005.4 0.0
17/09:30am 25.7 26.0 22.2 81 2.4 N 24 32 13 17 1006.2 1005.7 0.0
17/09:00am 25.0 25.5 21.9 83 2.1 N 22 30 12 16 1006.5 1006.0 0.6
17/08:30am 24.7 25.1 21.8 84 1.9 N 22 30 12 16 1006.5 1006.0 0.6
17/08:00am 24.3 26.2 21.4 84 1.9 N 13 17 7 9 1006.5 1006.0 0.6
17/07:30am 23.9 26.1 21.2 85 1.8 NNW 11 19 6 10 1006.5 1006.0 0.6
17/07:00am 23.6 26.5 21.7 89 1.3 NNE 9 13 5 7 1006.2 1005.7 0.6
17/06:30am 22.7 24.9 21.2 91 1.0 N 11 17 6 9 1005.8 1005.3 0.6
17/06:00am 22.1 24.8 20.7 92 0.9 N 7 13 4 7 1005.8 1005.3 0.6
17/05:30am 22.1 24.4 20.7 92 0.9 NE 9 17 5 9 1005.3 1004.9 0.6
17/05:00am 22.1 23.7 20.7 92 0.9 NNW 13 20 7 11 1004.8 1004.4 0.6
17/04:30am 22.0 23.1 20.5 91 1.0 NNW 15 24 8 13 1004.9 1004.5 0.6
17/04:00am 21.8 23.2 20.3 91 1.0 NNW 13 20 7 11 1005.1 1004.7 0.6
17/03:30am 22.3 23.8 20.6 90 1.1 NNW 13 19 7 10 1006.0 1005.5 0.6
17/03:00am 22.0 24.1 20.1 89 1.2 NNW 9 19 5 10 1006.5 1006.0 0.6
17/02:30am 22.1 22.3 20.6 91 1.0 N 20 30 11 16 1006.1 1005.6 0.6
17/02:00am 22.4 23.6 20.7 90 1.1 N 15 20 8 11 1006.8 1006.3 0.6
17/01:30am 22.3 23.4 20.4 89 1.2 N 15 19 8 10 1007.4 1006.9 0.4
17/01:00am 22.1 23.7 20.0 88 1.4 NNW 11 17 6 9 1007.8 1007.3 0.4
17/12:30am 21.8 21.7 19.9 89 1.2 WSW 20 26 11 14 1008.4 1007.9 0.4
17/12:00am 22.5 24.6 20.2 87 1.5 NNW 9 15 5 8 1008.6 1008.1 0.4
 
Date/Time
EDT
Temp
°C
App
Temp
°C
Dew
Point
Rel
Hum
%
Delta-T
°C
Wind Press
QNH
hPa
Press
MSL
hPa
Rain
since 9 am
mm
Dir
 
Spd
km/h
Gust
km/h
Spd
kts
Gust
kts
16/11:30pm 23.0 25.6 20.0 83 1.9 NNW 6 9 3 5 1008.8 1008.3 0.4
16/11:00pm 23.3 25.6 19.9 81 2.2 NW 7 13 4 7 1009.3 1008.8 0.0
16/10:30pm 23.6 23.2 20.1 81 2.3 NW 22 43 12 23 1009.1 1008.6 0.0
16/10:25pm 23.7 23.1 20.6 83 2.0 NNW 24 41 13 22 1009.1 1008.6 0.0
16/10:00pm 23.7 21.9 20.4 82 2.2 N 30 43 16 23 1006.8 1006.3 0.0
16/09:30pm 23.7 21.3 20.0 80 2.4 N 32 46 17 25 1006.2 1005.7 0.0
16/09:00pm 23.6 21.6 19.9 80 2.4 N 30 39 16 21 1006.2 1005.7 0.0
16/08:43pm 23.7 21.6 19.8 79 2.5 N 30 48 16 26 1006.3 1005.8 0.0
16/08:30pm 23.7 21.6 19.8 79 2.5 N 30 41 16 22 1006.3 1005.8 0.0
16/08:00pm 23.6 21.4 19.5 78 2.6 N 30 41 16 22 1006.1 1005.6 0.0
16/07:30pm 23.7 22.1 19.2 76 2.9 NNE 26 37 14 20 1005.8 1005.3 0.0
16/07:00pm 23.8 22.1 18.9 74 3.1 NNE 26 37 14 20 1005.7 1005.2 0.0
16/06:30pm 23.9 21.4 18.8 73 3.2 NNE 30 39 16 21 1005.3 1004.9 0.0
16/06:00pm 24.2 21.9 18.4 70 3.7 NNE 28 39 15 21 1005.4 1005.0 0.0
16/05:30pm 24.6 22.6 18.3 68 4.0 NNE 26 39 14 21 1005.6 1005.1 0.0
16/05:00pm 24.9 22.9 18.3 66 4.2 NNE 26 35 14 19 1005.9 1005.4 0.0
16/04:30pm 25.3 23.0 18.5 66 4.3 NE 28 43 15 23 1006.1 1005.6 0.0
16/04:00pm 25.2 23.3 17.7 63 4.7 NNE 24 35 13 19 1006.6 1006.1 0.0
16/03:30pm 25.2 23.2 17.4 62 4.9 NE 24 33 13 18 1007.0 1006.5 0.0
16/03:00pm 25.3 23.3 17.5 62 4.9 NNE 24 33 13 18 1007.4 1006.9 0.0
16/02:30pm 25.5 23.1 17.4 61 5.1 NNE 26 37 14 20 1007.4 1006.9 0.0
16/02:00pm 25.7 24.1 17.4 60 5.2 NNE 22 33 12 18 1007.8 1007.3 0.0
16/01:30pm 25.6 24.0 16.4 56 5.7 NNE 20 33 11 18 1008.3 1007.8 0.0
16/01:00pm 25.6 24.0 16.4 56 5.7 NNE 20 32 11 17 1008.6 1008.1 0.0
16/12:30pm 26.2 23.0 17.3 58 5.6 NE 30 37 16 20 1008.8 1008.3 0.0
16/12:00pm 26.2 23.4 17.3 58 5.6 NE 28 35 15 19 1009.6 1009.1 0.0

Other Formats:

Comma delimited format used in spreadsheet applications
http://www.bom.gov.au/fwo/IDN60801/IDN60801.94599.axf

JavaScript Object Notation format (JSON) in row-major order
http://www.bom.gov.au/fwo/IDN60801/IDN60801.94599.json